Time;durP1;ratioP1;P1;durP2;ratioP2;P2;SDS_P1;SDS_P2;PMS_P1;PMS_P2;Temp;Humidity;BMP_temperature;BMP_pressure;BME280_temperature;BME280_humidity;BME280_pressure;Samples;Min_cycle;Max_cycle;Signal;HPM_P1;HPM_P2
2021/10/14 00:02:31;;;;;;;74.73;32.80;;;3.50;99.90;;;;;;4390574;28;657673;-69
2021/10/14 00:05:19;;;;;;;70.00;30.80;;;3.50;99.90;;;;;;4412879;28;658198;-69
2021/10/14 00:08:06;;;;;;;64.77;29.97;;;3.50;99.90;;;;;;4394106;28;657303;-68
2021/10/14 00:10:54;;;;;;;70.60;31.07;;;3.50;99.90;;;;;;4411954;28;657770;-68
2021/10/14 00:13:43;;;;;;;73.37;33.07;;;3.60;99.90;;;;;;4393876;28;657667;-69
2021/10/14 00:16:31;;;;;;;69.53;32.80;;;3.70;99.90;;;;;;4391308;28;657341;-68
2021/10/14 00:19:18;;;;;;;64.60;28.90;;;3.70;99.90;;;;;;4413971;28;658618;-69
2021/10/14 00:22:06;;;;;;;59.80;28.37;;;3.70;99.90;;;;;;4391692;28;657724;-69
2021/10/14 00:24:54;;;;;;;78.47;32.47;;;3.70;99.90;;;;;;4412032;28;658224;-69
2021/10/14 00:27:41;;;;;;;69.33;31.70;;;3.70;99.90;;;;;;4392797;28;657835;-68
2021/10/14 00:30:30;;;;;;;69.50;31.33;;;3.80;99.90;;;;;;4411575;28;658145;-68
2021/10/14 00:33:18;;;;;;;71.77;31.37;;;3.80;99.90;;;;;;4385753;28;659423;-69
2021/10/14 00:36:06;;;;;;;71.20;31.30;;;3.80;99.90;;;;;;4387935;28;657202;-69
2021/10/14 00:38:53;;;;;;;73.20;33.67;;;3.80;99.90;;;;;;4416340;28;658054;-69
2021/10/14 00:41:41;;;;;;;103.37;38.80;;;3.90;99.90;;;;;;4392870;28;658650;-69
2021/10/14 00:44:28;;;;;;;121.90;39.80;;;3.90;99.90;;;;;;4409191;28;659505;-68
2021/10/14 00:47:29;;;;;;;128.23;35.70;;;3.90;99.90;;;;;;4407200;28;659055;-69
2021/10/14 00:50:16;;;;;;;159.63;34.73;;;3.90;99.90;;;;;;4388145;28;658497;-69
2021/10/14 00:53:04;;;;;;;90.90;32.57;;;3.90;99.90;;;;;;4410902;28;659426;-69
2021/10/14 00:55:51;;;;;;;75.77;31.07;;;3.80;99.90;;;;;;4391089;28;657651;-69
2021/10/14 00:58:39;;;;;;;69.37;31.03;;;3.80;99.90;;;;;;4412042;28;657813;-69
2021/10/14 01:01:26;;;;;;;63.63;28.00;;;3.70;99.90;;;;;;4389900;28;657535;-69
2021/10/14 01:04:15;;;;;;;62.13;28.70;;;3.60;99.90;;;;;;4408271;28;657555;-69
2021/10/14 01:07:03;;;;;;;68.27;28.30;;;3.60;99.90;;;;;;4389018;28;659366;-69
2021/10/14 01:09:51;;;;;;;61.47;26.47;;;3.50;99.90;;;;;;4392172;28;657629;-69
2021/10/14 01:12:39;;;;;;;61.23;28.20;;;3.40;99.90;;;;;;4413944;28;658430;-69
2021/10/14 01:15:27;;;;;;;62.57;27.33;;;3.50;99.90;;;;;;4389011;28;657872;-69
2021/10/14 01:18:14;;;;;;;60.63;27.13;;;3.50;99.90;;;;;;4406822;28;657941;-69
2021/10/14 01:21:03;;;;;;;61.90;27.40;;;3.50;99.90;;;;;;4388504;28;657486;-69
2021/10/14 01:23:51;;;;;;;63.07;26.53;;;3.50;99.90;;;;;;4391579;28;657722;-69
2021/10/14 01:26:39;;;;;;;73.63;28.03;;;3.50;99.90;;;;;;4411419;28;657483;-69
2021/10/14 01:29:27;;;;;;;63.13;27.60;;;3.40;99.90;;;;;;4390617;28;657614;-69
2021/10/14 01:32:14;;;;;;;61.50;26.87;;;3.40;99.90;;;;;;4420326;28;657922;-69
2021/10/14 01:35:03;;;;;;;80.17;27.43;;;3.40;99.90;;;;;;4393145;28;657921;-69
2021/10/14 01:37:52;;;;;;;59.20;23.70;;;3.50;99.90;;;;;;4401928;28;657815;-69
2021/10/14 01:40:40;;;;;;;75.43;23.75;;;3.40;99.90;;;;;;4414988;28;658337;-69
2021/10/14 01:43:27;;;;;;;61.00;24.40;;;3.40;99.90;;;;;;4389729;28;658882;-69
2021/10/14 01:46:15;;;;;;;165.97;29.63;;;3.40;99.90;;;;;;4422510;28;657730;-69
2021/10/14 01:49:02;;;;;;;58.57;26.37;;;3.40;99.90;;;;;;4393990;28;660366;-69
2021/10/14 01:51:50;;;;;;;70.47;27.90;;;3.30;99.90;;;;;;4420599;28;657591;-69
2021/10/14 01:54:39;;;;;;;64.13;26.57;;;3.30;99.90;;;;;;4395250;28;659027;-69
2021/10/14 01:57:26;;;;;;;61.37;23.70;;;3.30;99.90;;;;;;4402030;28;657446;-69
2021/10/14 02:00:14;;;;;;;63.00;25.17;;;3.20;99.90;;;;;;4425569;28;659607;-69
2021/10/14 02:03:02;;;;;;;74.47;24.87;;;3.20;99.90;;;;;;4399361;28;658996;-69
2021/10/14 02:05:49;;;;;;;70.82;23.33;;;3.20;99.90;;;;;;4425679;28;657528;-69
2021/10/14 02:08:37;;;;;;;160.13;24.80;;;3.20;99.90;;;;;;4408021;28;657926;-69
2021/10/14 02:11:26;;;;;;;266.90;27.37;;;3.10;99.90;;;;;;4422751;28;658957;-69
2021/10/14 02:14:14;;;;;;;106.90;25.30;;;3.10;99.90;;;;;;4394662;28;659042;-69
2021/10/14 02:17:01;;;;;;;90.60;27.10;;;3.10;99.90;;;;;;4398088;28;658886;-69
2021/10/14 02:19:49;;;;;;;134.67;27.57;;;3.10;99.90;;;;;;4421218;28;658786;-69
2021/10/14 02:22:36;;;;;;;102.97;25.67;;;3.10;99.90;;;;;;4403700;28;659139;-68
2021/10/14 02:25:24;;;;;;;138.27;27.63;;;3.10;99.90;;;;;;4420191;28;658905;-69
2021/10/14 02:28:13;;;;;;;103.03;26.77;;;3.20;99.90;;;;;;4397148;28;658961;-69
2021/10/14 02:31:01;;;;;;;102.30;25.55;;;3.20;99.90;;;;;;4404576;28;658608;-69
2021/10/14 02:33:48;;;;;;;58.93;22.50;;;3.30;99.90;;;;;;4422201;28;659627;-69
2021/10/14 02:36:36;;;;;;;119.27;21.97;;;3.30;99.90;;;;;;4406784;28;657730;-69
2021/10/14 02:39:23;;;;;;;62.83;21.37;;;3.30;99.90;;;;;;4425602;28;659466;-69
2021/10/14 02:42:11;;;;;;;116.87;21.97;;;3.40;99.90;;;;;;4395551;28;657757;-69
2021/10/14 02:45:00;;;;;;;111.90;22.33;;;3.50;99.90;;;;;;4416991;28;659993;-69
2021/10/14 02:47:47;;;;;;;171.80;21.97;;;3.40;99.90;;;;;;4403689;28;659132;-69
2021/10/14 02:50:35;;;;;;;67.00;20.67;;;3.50;99.90;;;;;;4422888;28;659164;-69
2021/10/14 02:53:23;;;;;;;121.80;22.60;;;3.50;99.90;;;;;;4425156;28;659480;-69
2021/10/14 02:56:11;;;;;;;132.00;22.13;;;3.60;99.90;;;;;;4392365;28;658920;-69
2021/10/14 02:58:59;;;;;;;176.25;22.67;;;3.50;99.90;;;;;;4423141;28;660042;-69
2021/10/14 03:01:48;;;;;;;215.97;24.10;;;3.60;99.90;;;;;;4397484;28;659065;-69
2021/10/14 03:04:35;;;;;;;236.17;23.10;;;3.50;99.90;;;;;;4404845;28;658410;-69
2021/10/14 03:07:23;;;;;;;289.83;24.67;;;3.50;99.90;;;;;;4417896;28;661363;-69
2021/10/14 03:10:11;;;;;;;253.43;22.90;;;3.50;99.90;;;;;;4396640;28;658315;-69
2021/10/14 03:12:58;;;;;;;221.80;19.80;;;3.50;99.90;;;;;;4422275;28;659141;-69
2021/10/14 03:15:46;;;;;;;287.83;22.70;;;3.50;99.90;;;;;;4397916;28;659225;-69
2021/10/14 03:18:35;;;;;;;222.43;21.97;;;3.40;99.90;;;;;;4407473;28;659655;-69
2021/10/14 03:21:23;;;;;;;245.97;21.90;;;3.40;99.90;;;;;;4389584;28;659991;-69
2021/10/14 03:24:10;;;;;;;218.70;21.17;;;3.40;99.90;;;;;;4403516;28;659757;-69
2021/10/14 03:26:58;;;;;;;263.60;23.37;;;3.40;99.90;;;;;;4417366;28;659765;-69
2021/10/14 03:29:46;;;;;;;238.40;22.60;;;3.40;99.90;;;;;;4405896;28;658478;-69
2021/10/14 03:32:33;;;;;;;222.00;25.23;;;3.40;99.90;;;;;;4429707;28;659526;-69
2021/10/14 03:35:22;;;;;;;268.60;26.50;;;3.40;99.90;;;;;;4408173;28;659615;-69
2021/10/14 03:38:10;;;;;;;256.70;27.87;;;3.40;99.90;;;;;;4423895;28;658622;-69
2021/10/14 03:40:57;;;;;;;301.47;30.30;;;3.40;99.90;;;;;;4406005;28;660356;-69
2021/10/14 03:43:46;;;;;;;171.13;26.43;;;3.40;99.90;;;;;;4428540;28;658777;-69
2021/10/14 03:46:33;;;;;;;195.77;28.03;;;3.40;99.90;;;;;;4431536;28;658825;-69
2021/10/14 03:49:21;;;;;;;216.73;27.23;;;3.40;99.90;;;;;;4410110;28;658573;-69
2021/10/14 03:52:10;;;;;;;198.63;29.70;;;3.40;99.90;;;;;;4425452;28;658759;-69
2021/10/14 03:54:57;;;;;;;270.90;27.37;;;3.40;99.90;;;;;;4411128;28;660019;-69
2021/10/14 03:57:45;;;;;;;282.30;26.43;;;3.40;99.90;;;;;;4432641;28;658646;-69
2021/10/14 04:00:35;;;;;;;202.33;27.23;;;3.20;99.90;;;;;;4393704;28;659781;-69
2021/10/14 04:03:30;;;;;;;215.43;27.20;;;3.20;99.90;;;;;;4407667;28;659040;-69
2021/10/14 04:06:18;;;;;;;280.60;28.47;;;3.30;99.90;;;;;;4399758;28;658649;-69
2021/10/14 04:09:10;;;;;;;334.20;30.53;;;3.30;99.90;;;;;;4408108;28;659791;-69
2021/10/14 04:12:04;;;;;;;348.93;30.40;;;3.30;99.90;;;;;;4396613;28;658764;-69
2021/10/14 04:14:56;;;;;;;300.17;29.23;;;3.30;99.90;;;;;;4410051;28;661766;-68
2021/10/14 04:17:44;;;;;;;214.67;26.27;;;3.20;99.90;;;;;;4392029;28;658899;-69
2021/10/14 04:20:32;;;;;;;269.10;30.60;;;3.30;99.90;;;;;;4426507;28;660103;-69
2021/10/14 04:23:20;;;;;;;360.97;30.53;;;3.30;99.90;;;;;;4413558;28;659121;-69
2021/10/14 04:26:09;;;;;;;160.53;21.37;;;3.30;99.90;;;;;;4411713;28;658549;-68
2021/10/14 04:28:57;;;;;;;251.67;28.70;;;3.30;99.90;;;;;;4404895;28;660142;-69
2021/10/14 04:31:45;;;;;;;238.87;27.20;;;3.30;99.90;;;;;;4428115;28;659265;-69
2021/10/14 04:34:32;;;;;;;324.23;29.07;;;3.30;99.90;;;;;;4418099;28;660265;-69
2021/10/14 04:37:20;;;;;;;182.87;23.90;;;3.30;99.90;;;;;;4428882;28;659242;-69
2021/10/14 04:40:08;;;;;;;188.57;25.30;;;3.30;99.90;;;;;;4425179;28;659784;-69
2021/10/14 04:43:03;;;;;;;322.10;27.93;;;3.30;99.90;;;;;;4395378;28;658517;-69
2021/10/14 04:45:58;;;;;;;339.77;26.90;;;3.30;99.90;;;;;;4408408;28;658872;-69
2021/10/14 04:48:46;;;;;;;227.87;25.57;;;3.30;99.90;;;;;;4385262;28;658728;-69
2021/10/14 04:51:33;;;;;;;334.40;27.90;;;3.20;99.90;;;;;;4427867;28;660103;-68
2021/10/14 04:54:21;;;;;;;275.93;26.57;;;3.30;99.90;;;;;;4404067;28;658309;-68
2021/10/14 04:57:08;;;;;;;371.23;29.57;;;3.30;99.90;;;;;;4430257;28;659877;-68
2021/10/14 04:59:57;;;;;;;346.30;32.37;;;3.30;99.90;;;;;;4408202;28;659086;-68
2021/10/14 05:02:45;;;;;;;336.77;30.33;;;3.30;99.90;;;;;;4425672;28;659633;-68
2021/10/14 05:05:32;;;;;;;185.67;26.40;;;3.30;99.90;;;;;;4400901;28;660339;-68
2021/10/14 05:08:20;;;;;;;265.80;33.50;;;3.30;99.90;;;;;;4419487;28;659085;-68
2021/10/14 05:11:11;;;;;;;305.93;31.97;;;3.40;99.90;;;;;;4427451;28;660395;-68
2021/10/14 05:13:59;;;;;;;181.73;29.93;;;3.40;99.90;;;;;;4402975;28;659227;-68
2021/10/14 05:16:48;;;;;;;289.43;30.30;;;3.40;99.90;;;;;;4405638;28;658884;-68
2021/10/14 05:19:35;;;;;;;363.90;32.47;;;3.40;99.90;;;;;;4416883;28;658637;-68
2021/10/14 05:22:23;;;;;;;193.50;29.13;;;3.40;99.90;;;;;;4427339;28;658851;-68
2021/10/14 05:25:11;;;;;;;294.70;32.17;;;3.50;99.90;;;;;;4408578;28;658523;-68
2021/10/14 05:27:58;;;;;;;498.57;37.50;;;3.50;99.90;;;;;;4427529;28;660013;-68
2021/10/14 05:30:47;;;;;;;411.53;31.43;;;3.50;99.90;;;;;;4060769;28;658609;-68
2021/10/14 05:33:37;;;;;;;454.27;33.07;;;3.60;99.90;;;;;;4421261;28;659517;-68
2021/10/14 05:36:24;;;;;;;314.53;29.40;;;3.60;99.90;;;;;;4384759;28;658803;-68
2021/10/14 05:39:12;;;;;;;368.83;29.90;;;3.60;99.90;;;;;;4401666;28;658984;-68
2021/10/14 05:42:00;;;;;;;216.60;28.37;;;3.70;99.90;;;;;;4408999;28;659263;-79
2021/10/14 05:44:50;;;;;;;306.97;30.97;;;3.70;99.90;;;;;;4413892;28;660082;-79
2021/10/14 05:47:38;;;;;;;361.80;32.53;;;3.70;99.90;;;;;;4389336;28;659505;-79
2021/10/14 05:50:28;;;;;;;523.85;39.75;;;3.80;99.90;;;;;;4400515;28;658974;-78
2021/10/14 05:53:16;;;;;;;831.83;44.60;;;3.70;99.90;;;;;;4411945;28;658622;-79
2021/10/14 05:56:03;;;;;;;488.53;35.70;;;3.70;99.90;;;;;;4439583;28;658738;-79
2021/10/14 05:58:51;;;;;;;456.53;37.00;;;3.60;99.90;;;;;;4394957;28;658610;-78
2021/10/14 06:01:38;;;;;;;247.87;29.40;;;3.70;99.90;;;;;;4418359;28;659296;-78
2021/10/14 06:04:26;;;;;;;430.93;33.87;;;3.70;99.90;;;;;;4403596;28;658886;-78
2021/10/14 06:07:15;;;;;;;484.33;38.37;;;3.70;99.90;;;;;;4418904;28;660197;-79
2021/10/14 06:10:02;;;;;;;633.77;42.53;;;3.60;99.90;;;;;;4395866;28;659832;-78
2021/10/14 06:12:51;;;;;;;520.67;38.07;;;3.60;99.90;;;;;;4407739;28;659022;-77
2021/10/14 06:15:38;;;;;;;481.97;35.53;;;3.70;99.90;;;;;;4419290;28;659402;-79
2021/10/14 06:18:26;;;;;;;359.60;32.03;;;3.70;99.90;;;;;;4398651;28;659053;-79
2021/10/14 06:21:13;;;;;;;433.23;31.03;;;3.70;99.90;;;;;;4445195;28;659226;-79
2021/10/14 06:24:03;;;;;;;521.30;34.50;;;3.70;99.90;;;;;;4400958;28;658785;-79
2021/10/14 06:26:51;;;;;;;412.60;32.37;;;3.70;99.90;;;;;;4405300;28;658332;-79
2021/10/14 06:29:38;;;;;;;521.03;32.60;;;3.70;99.90;;;;;;4413790;28;658935;-79
2021/10/14 06:32:26;;;;;;;624.13;36.17;;;3.70;99.90;;;;;;4391198;28;658630;-78
2021/10/14 06:35:14;;;;;;;286.43;26.17;;;3.60;99.90;;;;;;4414799;28;658995;-79
2021/10/14 06:38:02;;;;;;;174.13;19.67;;;3.60;99.90;;;;;;4401748;28;658548;-78
2021/10/14 06:40:51;;;;;;;410.27;28.43;;;3.60;99.90;;;;;;4422107;28;658463;-78
2021/10/14 06:43:39;;;;;;;359.83;26.80;;;3.50;99.90;;;;;;4398084;28;658633;-79
2021/10/14 06:46:27;;;;;;;294.73;26.73;;;3.50;99.90;;;;;;4398635;28;658799;-79
2021/10/14 06:49:14;;;;;;;478.37;32.70;;;3.60;99.90;;;;;;4423874;28;658846;-79
2021/10/14 06:52:02;;;;;;;501.37;34.13;;;3.50;99.90;;;;;;4395309;28;659227;-79
2021/10/14 06:54:49;;;;;;;543.10;33.40;;;3.60;99.90;;;;;;4418070;28;658780;-79
2021/10/14 06:57:41;;;;;;;461.73;30.73;;;3.70;99.90;;;;;;4392238;28;659681;-79
2021/10/14 07:00:29;;;;;;;588.53;34.67;;;3.60;99.90;;;;;;4403516;28;658443;-79
2021/10/14 07:03:18;;;;;;;407.57;36.77;;;3.60;99.90;;;;;;4403925;28;659118;-79
2021/10/14 07:06:06;;;;;;;430.97;30.23;;;3.60;99.90;;;;;;4405547;28;659208;-78
2021/10/14 07:08:54;;;;;;;524.70;34.97;;;3.60;99.90;;;;;;4421619;28;658251;-79
2021/10/14 07:11:51;;;;;;;460.93;36.80;;;3.50;99.90;;;;;;4397944;28;659730;-78
2021/10/14 07:14:41;;;;;;;473.45;35.80;;;3.60;99.90;;;;;;4394693;28;659039;-79
2021/10/14 07:17:29;;;;;;;386.60;32.30;;;3.70;99.90;;;;;;4405237;28;658856;-78
2021/10/14 07:20:17;;;;;;;274.98;27.90;;;3.70;99.90;;;;;;4400936;28;658510;-78
2021/10/14 07:23:12;;;;;;;165.60;22.33;;;3.70;99.90;;;;;;4420016;28;658112;-78
2021/10/14 07:26:00;;;;;;;145.10;24.30;;;3.60;99.90;;;;;;4391638;28;659649;-77
2021/10/14 07:28:48;;;;;;;194.77;27.13;;;3.70;99.90;;;;;;4418425;28;660080;-78
2021/10/14 07:31:38;;;;;;;204.83;30.23;;;3.70;99.90;;;;;;4407230;28;659135;-79
2021/10/14 07:34:26;;;;;;;132.17;26.93;;;3.80;99.90;;;;;;4387687;28;658611;-77
2021/10/14 07:37:19;;;;;;;147.37;30.57;;;4.00;99.90;;;;;;4410799;28;658420;-78
2021/10/14 07:40:08;;;;;;;76.57;27.73;;;4.00;99.90;;;;;;4370276;28;658868;-78
2021/10/14 07:42:57;;;;;;;76.03;27.50;;;4.20;99.90;;;;;;4389506;28;657723;-78
2021/10/14 07:45:45;;;;;;;74.50;26.77;;;4.30;99.90;;;;;;4413581;28;657513;-78
2021/10/14 07:48:34;;;;;;;71.80;26.33;;;4.40;99.90;;;;;;4393399;28;659047;-77
2021/10/14 07:51:22;;;;;;;72.47;26.17;;;4.40;99.90;;;;;;4391819;28;658119;-79
2021/10/14 07:54:11;;;;;;;70.93;26.93;;;4.60;99.90;;;;;;4411038;28;657267;-78
2021/10/14 07:56:59;;;;;;;76.80;30.20;;;4.60;99.90;;;;;;4415335;28;658571;-78
2021/10/14 07:59:47;;;;;;;76.20;28.73;;;4.70;99.90;;;;;;4393989;28;657827;-79
2021/10/14 08:02:35;;;;;;;70.63;28.20;;;4.60;99.90;;;;;;4416305;28;657581;-78
2021/10/14 08:05:26;;;;;;;85.03;30.23;;;4.70;99.90;;;;;;4394796;28;657705;-79
2021/10/14 08:08:14;;;;;;;71.23;29.37;;;4.90;99.90;;;;;;4389627;28;658643;-79
2021/10/14 08:11:02;;;;;;;64.57;26.37;;;5.10;99.90;;;;;;4389482;28;658142;-78
2021/10/14 08:13:50;;;;;;;72.90;29.85;;;5.10;99.90;;;;;;4411019;28;657693;-79
2021/10/14 08:16:38;;;;;;;66.20;27.43;;;5.20;99.90;;;;;;4393354;28;658069;-78
2021/10/14 08:19:26;;;;;;;68.67;29.07;;;5.40;99.90;;;;;;4393489;28;658097;-78
2021/10/14 08:22:16;;;;;;;58.27;27.53;;;5.50;99.90;;;;;;4410653;28;658213;-79
2021/10/14 08:25:04;;;;;;;63.10;28.07;;;5.50;99.90;;;;;;4392431;28;658991;-79
2021/10/14 08:27:52;;;;;;;62.67;28.07;;;5.60;99.90;;;;;;4392313;28;657669;-78
2021/10/14 08:30:42;;;;;;;61.07;26.77;;;5.80;99.90;;;;;;4421472;28;657743;-79
2021/10/14 08:33:30;;;;;;;58.87;27.33;;;5.80;99.90;;;;;;4407086;28;657450;-78
2021/10/14 08:36:19;;;;;;;59.53;28.30;;;5.90;99.90;;;;;;4398665;28;659145;-79
2021/10/14 08:39:10;;;;;;;70.70;30.37;;;5.90;99.90;;;;;;4395110;28;657501;-78
2021/10/14 08:41:57;;;;;;;57.07;27.13;;;6.00;99.90;;;;;;4394876;28;657919;-79
2021/10/14 08:44:48;;;;;;;53.00;24.13;;;6.20;99.90;;;;;;4408312;28;658190;-78
2021/10/14 08:47:40;;;;;;;60.17;27.10;;;6.20;99.90;;;;;;4396094;28;657801;-79
2021/10/14 08:50:31;;;;;;;58.17;28.37;;;6.20;99.90;;;;;;4396262;28;658649;-79
2021/10/14 08:53:22;;;;;;;57.53;28.33;;;6.40;99.90;;;;;;4401691;28;658054;-79
2021/10/14 08:56:13;;;;;;;51.37;25.30;;;6.70;99.90;;;;;;4416389;28;657952;-79
2021/10/14 08:59:02;;;;;;;54.47;26.80;;;6.80;99.90;;;;;;4404135;28;658593;-79
2021/10/14 09:02:06;;;;;;;46.40;22.87;;;7.00;99.90;;;;;;4417564;28;657839;-79
2021/10/14 09:05:03;;;;;;;55.90;26.00;;;7.10;99.90;;;;;;4395791;28;658548;-79
2021/10/14 09:07:51;;;;;;;47.67;23.27;;;7.60;99.90;;;;;;4401088;28;658030;-78
2021/10/14 09:10:41;;;;;;;42.07;20.67;;;8.30;99.90;;;;;;4416583;28;658123;-80
2021/10/14 09:13:31;;;;;;;36.47;17.77;;;8.70;99.90;;;;;;4395921;28;657464;-79
2021/10/14 09:16:28;;;;;;;42.73;20.83;;;8.90;99.90;;;;;;4389283;28;657491;-79
2021/10/14 09:19:18;;;;;;;41.67;19.67;;;9.20;99.90;;;;;;4381653;28;658214;-78
2021/10/14 09:22:06;;;;;;;33.90;17.60;;;9.40;99.90;;;;;;4399615;28;657422;-78
2021/10/14 09:24:55;;;;;;;31.47;17.53;;;9.60;99.90;;;;;;4417474;28;657564;-79
2021/10/14 09:27:44;;;;;;;32.33;16.40;;;9.50;99.90;;;;;;4390553;28;657645;-80
2021/10/14 09:30:40;;;;;;;32.03;16.53;;;9.40;99.90;;;;;;4403996;28;657616;-79
2021/10/14 09:33:35;;;;;;;29.73;14.90;;;9.30;99.90;;;;;;4407825;28;657656;-79
2021/10/14 09:36:24;;;;;;;32.57;16.10;;;9.10;99.90;;;;;;4393901;28;658349;-79
2021/10/14 09:39:28;;;;;;;32.53;17.27;;;8.90;99.90;;;;;;4930835;27;131329;-79
2021/10/14 09:42:30;;;;;;;27.57;13.53;;;9.30;99.90;;;;;;4402505;28;651494;-79
2021/10/14 09:45:20;;;;;;;26.37;14.00;;;9.50;99.90;;;;;;4406797;28;651458;-79
2021/10/14 09:48:11;;;;;;;24.50;14.43;;;10.00;99.90;;;;;;4397404;28;651701;-78
2021/10/14 09:50:59;;;;;;;21.52;11.02;;;10.00;99.90;;;;;;4401179;28;652927;-78
2021/10/14 09:53:48;;;;;;;18.77;9.90;;;10.20;99.90;;;;;;4416982;28;652806;-78
2021/10/14 09:56:40;;;;;;;23.27;10.37;;;10.50;99.90;;;;;;4400280;28;652242;-79
2021/10/14 09:59:33;;;;;;;19.93;10.27;;;10.80;99.90;;;;;;4422827;28;654557;-79
2021/10/14 10:02:27;;;;;;;12.17;6.93;;;10.90;99.90;;;;;;4394583;28;653429;-78
2021/10/14 10:05:19;;;;;;;19.63;8.73;;;10.70;99.90;;;;;;4418106;28;652707;-79
2021/10/14 10:08:09;;;;;;;18.63;9.83;;;10.10;99.90;;;;;;4403080;28;653722;-79
2021/10/14 10:10:58;;;;;;;17.97;9.70;;;9.80;99.90;;;;;;4416941;28;653662;-79
2021/10/14 10:13:55;;;;;;;18.90;9.55;;;10.00;99.90;;;;;;4441571;28;652593;-78
2021/10/14 10:16:56;;;;;;;18.13;8.43;;;10.00;99.90;;;;;;4427369;28;654559;-79
2021/10/14 10:19:47;;;;;;;18.20;9.27;;;10.30;99.90;;;;;;4433025;28;654044;-79
2021/10/14 10:22:51;;;;;;;20.00;10.70;;;10.20;99.90;;;;;;4451476;28;653409;-80
2021/10/14 10:25:40;;;;;;;20.17;10.43;;;10.30;99.90;;;;;;4438111;28;654966;-80
2021/10/14 10:28:37;;;;;;;17.70;9.47;;;10.20;99.90;;;;;;4426606;28;655624;-79
2021/10/14 10:31:30;;;;;;;20.07;10.70;;;10.10;99.90;;;;;;4451226;28;653638;-78
2021/10/14 10:37:57;;;;;;;17.90;9.23;;;10.30;99.90;;;;;;4446111;28;653315;-78
2021/10/14 10:40:45;;;;;;;15.43;8.13;;;10.50;99.90;;;;;;4456016;28;653599;-80
2021/10/14 10:43:36;;;;;;;13.27;8.00;;;10.70;99.90;;;;;;4439383;28;654047;-80
2021/10/14 10:46:31;;;;;;;19.03;8.97;;;10.50;99.90;;;;;;4432123;28;654315;-80
2021/10/14 10:49:19;;;;;;;13.20;7.57;;;10.60;99.90;;;;;;4436152;28;653997;-81
2021/10/14 10:52:33;;;;;;;14.60;7.67;;;10.80;99.90;;;;;;4418708;28;653656;-80
2021/10/14 10:55:40;;;;;;;12.07;6.70;;;10.80;99.90;;;;;;4432487;28;653642;-80
2021/10/14 10:58:48;;;;;;;12.73;6.63;;;10.70;99.90;;;;;;4432483;28;653681;-79
2021/10/14 11:01:37;;;;;;;9.20;5.33;;;10.70;99.90;;;;;;4424550;28;653452;-79
2021/10/14 11:04:25;;;;;;;8.83;4.50;;;10.50;99.90;;;;;;4451292;28;653067;-79
2021/10/14 11:07:13;;;;;;;13.90;6.40;;;10.50;99.90;;;;;;4417677;28;653095;-80
2021/10/14 11:10:01;;;;;;;13.27;6.80;;;10.60;99.90;;;;;;4418216;28;653282;-78
2021/10/14 11:13:00;;;;;;;8.33;4.13;;;11.20;99.90;;;;;;4449444;28;654460;-78
2021/10/14 11:15:51;;;;;;;9.87;4.13;;;11.90;99.90;;;;;;4414826;28;653028;-80
2021/10/14 11:18:44;;;;;;;8.90;4.63;;;11.90;99.90;;;;;;4429974;28;652370;-80
2021/10/14 11:21:32;;;;;;;10.82;4.15;;;11.90;99.90;;;;;;4420435;28;652539;-80
2021/10/14 11:24:22;;;;;;;8.80;4.63;;;12.40;99.90;;;;;;4451855;28;653903;-77
2021/10/14 11:27:15;;;;;;;13.37;4.87;;;12.70;99.90;;;;;;4438915;28;652591;-78
2021/10/14 11:30:18;;;;;;;9.87;5.07;;;11.90;99.90;;;;;;4417331;28;654928;-80
2021/10/14 11:33:11;;;;;;;6.67;3.97;;;11.90;99.90;;;;;;4400116;28;653071;-79
2021/10/14 11:36:02;;;;;;;9.70;3.93;;;12.10;99.90;;;;;;4418566;28;653701;-81
2021/10/14 11:39:01;;;;;;;7.83;4.10;;;12.10;99.90;;;;;;4417366;28;652252;-81
2021/10/14 11:41:54;;;;;;;9.13;3.57;;;12.30;99.90;;;;;;4417285;28;652338;-82
2021/10/14 11:44:44;;;;;;;7.67;3.97;;;12.40;99.90;;;;;;4417276;28;653057;-79
2021/10/14 11:47:31;;;;;;;8.70;4.80;;;12.50;99.90;;;;;;4417955;28;652784;-81
2021/10/14 11:50:19;;;;;;;9.90;4.90;;;12.40;99.90;;;;;;4437059;28;652234;-79
2021/10/14 11:53:10;;;;;;;9.67;4.33;;;12.40;99.90;;;;;;4416014;28;652609;-80
2021/10/14 11:56:03;;;;;;;7.50;4.13;;;12.70;99.90;;;;;;4414588;28;653718;-79
2021/10/14 11:58:50;;;;;;;6.93;4.00;;;12.80;99.90;;;;;;4417400;28;652196;-80
2021/10/14 12:01:46;;;;;;;5.57;3.33;;;13.40;99.90;;;;;;4452448;28;652788;-79
2021/10/14 12:04:38;;;;;;;6.40;3.67;;;13.50;99.90;;;;;;4427050;28;653257;-79
2021/10/14 12:07:27;;;;;;;5.23;3.33;;;13.90;93.00;;;;;;4403689;28;652810;-80
2021/10/14 12:10:35;;;;;;;6.50;3.40;;;14.80;1.00;;;;;;4436049;28;652513;-80
2021/10/14 12:13:27;;;;;;;6.23;3.53;;;15.40;1.00;;;;;;4399186;28;651808;-81
2021/10/14 12:16:16;;;;;;;6.03;3.80;;;15.50;1.00;;;;;;4421664;28;651782;-81
2021/10/14 12:19:13;;;;;;;9.27;4.67;;;15.20;1.00;;;;;;4420298;28;651523;-81
2021/10/14 12:22:05;;;;;;;8.87;3.90;;;15.70;1.00;;;;;;4405938;28;651687;-81
2021/10/14 12:24:59;;;;;;;7.53;3.87;;;15.50;1.00;;;;;;4418653;28;651483;-80
2021/10/14 12:27:51;;;;;;;9.10;4.43;;;15.00;1.00;;;;;;4425111;28;652813;-79
2021/10/14 12:30:40;;;;;;;8.40;4.27;;;14.60;1.00;;;;;;4424311;28;652435;-79
2021/10/14 12:33:30;;;;;;;10.47;5.10;;;14.50;1.00;;;;;;4429598;28;653126;-83
2021/10/14 12:36:18;;;;;;;8.27;4.73;;;14.60;1.00;;;;;;4416173;28;654618;-82
2021/10/14 12:39:06;;;;;;;9.67;4.70;;;15.60;1.00;;;;;;4418209;28;652562;-78
2021/10/14 12:41:57;;;;;;;7.40;3.77;;;16.30;1.00;;;;;;4441639;28;652220;-82
2021/10/14 12:45:07;;;;;;;10.17;4.23;;;16.30;1.00;;;;;;4424478;28;652141;-83
2021/10/14 12:48:10;;;;;;;9.97;4.23;;;17.90;1.00;;;;;;4398539;28;653824;-77
2021/10/14 12:51:07;;;;;;;8.77;4.60;;;17.50;1.00;;;;;;4391493;28;653051;-77
2021/10/14 12:53:57;;;;;;;9.30;3.90;;;17.60;1.00;;;;;;4423573;28;652101;-75
2021/10/14 12:56:45;;;;;;;7.17;4.40;;;17.80;1.00;;;;;;4448529;28;652528;-77
2021/10/14 12:59:37;;;;;;;8.77;4.50;;;16.90;1.00;;;;;;4427141;28;653701;-77
2021/10/14 13:02:28;;;;;;;7.67;3.93;;;15.30;1.00;;;;;;4430544;28;652429;-75
2021/10/14 13:05:16;;;;;;;10.33;4.97;;;15.30;1.00;;;;;;4454975;28;652351;-74
2021/10/14 13:08:04;;;;;;;9.53;4.17;;;16.60;1.00;;;;;;4471050;28;653947;-76
2021/10/14 13:10:53;;;;;;;8.80;4.77;;;17.50;1.00;;;;;;4451194;28;652954;-77
2021/10/14 13:13:41;;;;;;;6.77;4.50;;;18.50;1.00;;;;;;4448780;28;653267;-75
2021/10/14 13:16:29;;;;;;;8.23;4.00;;;19.00;1.00;;;;;;4454097;28;653470;-77
2021/10/14 13:19:19;;;;;;;7.53;4.10;;;20.10;1.00;;;;;;4451434;28;652990;-84
2021/10/14 13:22:07;;;;;;;8.20;4.10;;;20.60;1.00;;;;;;4449129;28;652461;-84
2021/10/14 13:24:55;;;;;;;7.53;4.27;;;20.60;1.00;;;;;;4474635;28;652134;-84
2021/10/14 13:27:43;;;;;;;7.13;4.43;;;20.00;1.00;;;;;;4430560;28;653778;-84
2021/10/14 13:30:32;;;;;;;8.97;4.40;;;20.00;1.00;;;;;;4433755;28;652561;-80
2021/10/14 13:33:21;;;;;;;8.87;3.40;;;20.10;1.00;;;;;;4451842;28;652461;-80
2021/10/14 13:36:14;;;;;;;7.57;3.53;;;21.10;1.00;;;;;;4451502;28;652872;-83
2021/10/14 13:39:02;;;;;;;5.30;3.17;;;19.80;1.00;;;;;;4433334;28;652213;-84
2021/10/14 13:42:00;;;;;;;4.43;3.10;;;18.40;1.00;;;;;;4447443;28;652662;-85
2021/10/14 13:44:48;;;;;;;7.60;3.40;;;18.50;1.00;;;;;;4420252;28;653231;-82
2021/10/14 13:47:37;;;;;;;7.87;3.13;;;18.10;1.00;;;;;;4440778;28;652575;-82
2021/10/14 13:50:25;;;;;;;7.83;3.10;;;16.50;1.00;;;;;;4443359;28;652742;-81
2021/10/14 13:53:19;;;;;;;7.23;3.37;;;14.90;1.00;;;;;;4423831;28;652454;-85
2021/10/14 13:56:07;;;;;;;9.87;3.30;;;14.10;1.00;;;;;;4415357;28;652110;-82
2021/10/14 13:58:57;;;;;;;6.80;3.30;;;13.40;1.00;;;;;;4448771;28;651865;-82
2021/10/14 14:01:46;;;;;;;7.67;3.57;;;13.00;1.00;;;;;;4448153;28;652789;-84
2021/10/14 14:04:34;;;;;;;7.13;3.10;;;12.50;1.00;;;;;;4417381;28;652946;-87
2021/10/14 14:07:23;;;;;;;6.27;2.77;;;11.90;1.00;;;;;;4425815;28;653100;-85
2021/10/14 14:10:14;;;;;;;8.60;3.00;;;11.60;1.00;;;;;;4430630;28;652565;-80
2021/10/14 14:13:02;;;;;;;7.50;3.77;;;11.30;1.00;;;;;;4423549;28;652246;-82
2021/10/14 14:15:51;;;;;;;6.07;3.23;;;11.10;1.00;;;;;;4442711;28;652015;-86
2021/10/14 14:18:39;;;;;;;7.60;3.37;;;10.90;1.00;;;;;;4416226;28;652611;-82
2021/10/14 14:21:29;;;;;;;6.17;3.30;;;10.80;1.00;;;;;;4424401;28;652285;-80
2021/10/14 14:24:17;;;;;;;8.03;3.80;;;10.80;1.00;;;;;;4423058;28;652587;-82